Terminal Aerodrome Forecast
Issued by NWS La Crosse, WI

Home | Current Version | Previous Version | Text Only | Print | Product List | Glossary On
Versions: 1 2 3 4 5 6 7 8 9 10 11 12 13 14 15 16 17 18 19 20 21
000
FTUS43 KARX 272003 AAA
TAFRST
TAF AMD
KRST 272003Z 2720/2818 34004KT 3SM -SHRA BKN015 OVC035
      TEMPO 2720/2721 1SM -SHRA SCT008 BKN010
     FM272100 04005KT P6SM BKN018
     FM280800 14004KT 4SM -SHRA BR BKN010=

USA.gov is the U.S. government's official web portal to all federal, state and local government web resources and services.